Aviation Digital Data Service (ADDS)

Output produced by METARs form (0826 UTC 19 April 2019)
found at http://www.aviationweather.gov/metar/data/
 
Forecast for: EHEH (EINDHOVEN RNLAFB, NL)
Text: TAF EHEH 190515Z 1906/2012 07006KT CAVOK
Forecast period: 0600 UTC 19 April 2019 to 1200 UTC 20 April 2019
Forecast type: FROM: standard forecast or significant change
Winds: from the ENE (70 degrees) at 7 MPH (6 knots; 3.1 m/s)
Visibility: 6 or more miles 10+ km)
Ceiling: unknown
Clouds: missing
Weather: NSW  (no significant weather)
Text: TEMPO 1910/1915 07007G17KT
Forecast period: 1000 to 1500 UTC 19 April 2019
Forecast type: TEMPORARY: The following changes expected for less than half the time period
Winds: from the ENE (70 degrees) at 8 MPH (7 knots; 3.6 m/s)
gusting to 20 MPH (17 knots; 8.7 m/s)
Visibility: missing
Ceiling: unknown
Clouds: missing
Weather: no significant weather forecast for this period